createdAt,value
2022-10-14T00:01:08.246Z,13.30
2022-10-14T00:03:37.150Z,13.20
2022-10-14T00:06:10.192Z,13.20
2022-10-14T00:08:37.378Z,13.20
2022-10-14T00:11:12.391Z,13.20
2022-10-14T00:13:41.340Z,13.20
2022-10-14T00:16:19.743Z,13.10
2022-10-14T00:18:48.009Z,13.10
2022-10-14T00:21:15.635Z,13.10
2022-10-14T00:23:43.613Z,13.10
2022-10-14T00:26:26.470Z,13.10
2022-10-14T00:28:54.089Z,13.00
2022-10-14T00:31:21.461Z,13.00
2022-10-14T00:33:48.842Z,13.00
2022-10-14T00:36:18.509Z,12.90
2022-10-14T00:38:46.031Z,12.90
2022-10-14T00:41:16.554Z,12.90
2022-10-14T00:43:57.054Z,12.90
2022-10-14T00:46:27.441Z,12.90
2022-10-14T00:48:56.483Z,12.90
2022-10-14T00:51:23.665Z,12.80
2022-10-14T00:53:51.361Z,12.80
2022-10-14T00:56:24.582Z,12.80
2022-10-14T00:58:54.162Z,12.80
2022-10-14T01:01:21.542Z,12.80
2022-10-14T01:03:49.212Z,12.80
2022-10-14T01:06:35.092Z,12.80
2022-10-14T01:09:38.923Z,12.70
2022-10-14T01:12:28.984Z,12.70
2022-10-14T01:15:00.052Z,12.70
2022-10-14T01:17:52.172Z,12.60
2022-10-14T01:20:51.594Z,12.60
2022-10-14T01:23:52.524Z,12.60
2022-10-14T01:26:31.518Z,12.60
2022-10-14T01:29:30.151Z,12.60
2022-10-14T01:32:10.459Z,12.50
2022-10-14T01:34:44.603Z,12.50
2022-10-14T01:37:18.035Z,12.50
2022-10-14T01:39:49.255Z,12.40
2022-10-14T01:42:23.695Z,12.50
2022-10-14T01:44:59.659Z,12.40
2022-10-14T01:47:33.079Z,12.40
2022-10-14T01:50:09.887Z,12.30
2022-10-14T01:52:47.113Z,12.40
2022-10-14T01:55:25.221Z,12.40
2022-10-14T01:57:56.545Z,12.40
2022-10-14T02:00:23.980Z,12.40
2022-10-14T02:02:51.307Z,12.40
2022-10-14T02:05:56.820Z,12.30
2022-10-14T02:08:58.011Z,12.30
2022-10-14T02:11:26.107Z,12.30
2022-10-14T02:14:12.007Z,12.30
2022-10-14T02:17:01.268Z,12.30
2022-10-14T02:19:37.709Z,12.30
2022-10-14T02:22:12.886Z,12.30
2022-10-14T02:24:51.529Z,12.30
2022-10-14T02:27:22.748Z,12.30
2022-10-14T02:29:53.106Z,12.30
2022-10-14T02:32:24.377Z,12.30
2022-10-14T02:34:58.158Z,12.30
2022-10-14T02:37:28.415Z,12.30
2022-10-14T02:40:23.989Z,12.20
2022-10-14T02:42:51.516Z,12.20
2022-10-14T02:45:20.647Z,12.20
2022-10-14T02:47:48.223Z,12.20
2022-10-14T02:50:19.087Z,12.30
2022-10-14T02:52:46.536Z,12.30
2022-10-14T02:55:13.879Z,12.40
2022-10-14T02:57:41.203Z,12.50
2022-10-14T03:00:09.775Z,12.50
2022-10-14T03:02:37.017Z,12.60
2022-10-14T03:05:05.038Z,12.60
2022-10-14T03:07:32.523Z,12.70
2022-10-14T03:09:59.762Z,12.70
2022-10-14T03:12:27.062Z,12.70
2022-10-14T03:14:54.895Z,12.70
2022-10-14T03:17:22.108Z,12.60
2022-10-14T03:19:49.785Z,12.60
2022-10-14T03:22:17.120Z,12.50
2022-10-14T03:24:44.409Z,12.50
2022-10-14T03:27:11.768Z,12.50
2022-10-14T03:29:38.981Z,12.40
2022-10-14T03:32:06.360Z,12.40
2022-10-14T03:34:33.858Z,12.40
2022-10-14T03:37:01.135Z,12.40
2022-10-14T03:39:28.510Z,12.40
2022-10-14T03:41:56.047Z,12.50
2022-10-14T03:44:23.476Z,12.50
2022-10-14T03:46:50.777Z,12.50
2022-10-14T03:49:18.139Z,12.50
2022-10-14T03:51:45.424Z,12.50
2022-10-14T03:54:12.724Z,12.60
2022-10-14T03:56:40.142Z,12.60
2022-10-14T03:59:07.555Z,12.60
2022-10-14T04:01:35.071Z,12.60
2022-10-14T04:04:02.358Z,12.60
2022-10-14T04:06:31.183Z,12.60
2022-10-14T04:08:58.432Z,12.70
2022-10-14T04:11:25.771Z,12.70
2022-10-14T04:13:52.948Z,12.70
2022-10-14T04:16:20.402Z,12.60
2022-10-14T04:18:47.633Z,12.70
2022-10-14T04:21:14.918Z,12.70
2022-10-14T04:23:42.312Z,12.70
2022-10-14T04:26:10.414Z,12.70
2022-10-14T04:28:38.123Z,12.70
2022-10-14T04:31:06.363Z,12.70
2022-10-14T04:33:35.086Z,12.70
2022-10-14T04:36:06.164Z,12.70
2022-10-14T04:38:33.864Z,12.70
2022-10-14T04:41:01.451Z,12.70
2022-10-14T04:43:28.780Z,12.70
2022-10-14T04:45:56.234Z,12.70
2022-10-14T04:48:23.702Z,12.70
2022-10-14T04:50:53.204Z,12.70
2022-10-14T04:53:22.476Z,12.60
2022-10-14T04:55:51.691Z,12.60
2022-10-14T04:58:19.363Z,12.60
2022-10-14T05:00:46.731Z,12.60
2022-10-14T05:03:14.260Z,12.70
2022-10-14T05:05:42.024Z,12.70
2022-10-14T05:08:09.311Z,12.60
2022-10-14T05:10:36.752Z,12.60
2022-10-14T05:13:04.442Z,12.60
2022-10-14T05:15:31.837Z,12.50
2022-10-14T05:17:59.104Z,12.50
2022-10-14T05:20:26.815Z,12.50
2022-10-14T05:22:54.058Z,12.50
2022-10-14T05:25:21.375Z,12.40
2022-10-14T05:27:48.661Z,12.40
2022-10-14T05:30:16.648Z,12.40
2022-10-14T05:32:43.874Z,12.40
2022-10-14T05:35:11.342Z,12.40
2022-10-14T05:37:38.833Z,12.40
2022-10-14T05:40:07.150Z,12.40
2022-10-14T05:42:34.501Z,12.40
2022-10-14T05:45:01.809Z,12.40
2022-10-14T05:47:29.160Z,12.40
2022-10-14T05:49:56.466Z,12.40
2022-10-14T05:52:24.485Z,12.40
2022-10-14T05:54:52.254Z,12.40
2022-10-14T05:57:19.714Z,12.50
2022-10-14T05:59:47.066Z,12.50
2022-10-14T06:02:14.461Z,12.50
2022-10-14T06:04:42.602Z,12.50
2022-10-14T06:07:13.477Z,12.50
2022-10-14T06:09:40.806Z,12.60
2022-10-14T06:12:09.663Z,12.60
2022-10-14T06:14:38.717Z,12.70
2022-10-14T06:17:07.558Z,12.70
2022-10-14T06:19:34.925Z,12.80
2022-10-14T06:22:02.630Z,12.80
2022-10-14T06:24:29.936Z,12.90
2022-10-14T06:26:58.150Z,12.90
2022-10-14T06:29:31.227Z,13.00
2022-10-14T06:31:58.439Z,13.10
2022-10-14T06:34:25.691Z,13.20
2022-10-14T06:36:53.085Z,13.20
2022-10-14T06:39:20.664Z,13.30
2022-10-14T06:41:48.132Z,13.40
2022-10-14T06:44:16.236Z,13.60
2022-10-14T06:46:44.132Z,13.60
2022-10-14T06:49:11.424Z,13.70
2022-10-14T06:51:41.749Z,13.80
2022-10-14T06:54:09.312Z,13.80
2022-10-14T06:56:36.770Z,13.90
2022-10-14T06:59:05.879Z,13.90
2022-10-14T07:01:33.171Z,13.90
2022-10-14T07:04:00.465Z,14.10
2022-10-14T07:06:27.898Z,14.10
2022-10-14T07:08:55.237Z,14.20
2022-10-14T07:11:22.445Z,14.20
2022-10-14T07:13:49.774Z,14.20
2022-10-14T07:16:17.170Z,14.30
2022-10-14T07:18:44.406Z,14.30
2022-10-14T07:21:11.821Z,14.30
2022-10-14T07:23:39.126Z,14.40
2022-10-14T07:26:06.728Z,14.50
2022-10-14T07:28:34.363Z,14.50
2022-10-14T07:31:08.298Z,14.60
2022-10-14T07:33:40.773Z,14.60
2022-10-14T07:36:14.284Z,14.70
2022-10-14T07:38:44.143Z,14.70
2022-10-14T07:41:19.079Z,14.80
2022-10-14T07:44:03.344Z,14.80
2022-10-14T07:46:33.196Z,14.90
2022-10-14T07:49:12.094Z,15.00
2022-10-14T07:51:40.292Z,14.90
2022-10-14T07:54:11.502Z,15.00
2022-10-14T07:56:40.502Z,15.10
2022-10-14T07:59:08.050Z,15.30
2022-10-14T08:01:35.409Z,15.40
2022-10-14T08:04:02.649Z,15.60
2022-10-14T08:06:29.956Z,15.70
2022-10-14T08:08:57.101Z,15.90
2022-10-14T08:11:27.000Z,16.00
2022-10-14T08:13:55.375Z,16.10
2022-10-14T08:16:28.651Z,16.20
2022-10-14T08:18:58.095Z,16.30
2022-10-14T08:21:26.266Z,16.40
2022-10-14T08:23:54.961Z,16.40
2022-10-14T08:26:35.172Z,16.40
2022-10-14T08:29:05.419Z,16.40
2022-10-14T08:31:33.621Z,16.30
2022-10-14T08:34:00.920Z,16.20
2022-10-14T08:36:28.478Z,16.20
2022-10-14T08:38:55.958Z,16.40
2022-10-14T08:41:29.754Z,16.60
2022-10-14T08:44:23.015Z,17.00
2022-10-14T08:46:58.302Z,17.30
2022-10-14T08:50:02.462Z,17.60
2022-10-14T08:52:45.487Z,17.80
2022-10-14T08:55:37.258Z,18.10
2022-10-14T08:58:20.753Z,18.20
2022-10-14T09:00:51.728Z,18.40
2022-10-14T09:03:24.582Z,18.50
2022-10-14T09:06:04.220Z,18.50
2022-10-14T09:08:39.007Z,18.50
2022-10-14T09:11:12.011Z,18.50
2022-10-14T09:13:43.133Z,18.40
2022-10-14T09:16:20.533Z,18.50
2022-10-14T09:19:06.538Z,18.60
2022-10-14T09:21:58.541Z,18.50
2022-10-14T09:24:37.510Z,18.40
2022-10-14T09:27:24.663Z,18.30
2022-10-14T09:30:10.285Z,18.10
2022-10-14T09:32:46.515Z,18.20
2022-10-14T09:35:41.056Z,18.20
2022-10-14T09:38:10.296Z,18.30
2022-10-14T09:40:47.796Z,18.30
2022-10-14T09:43:22.609Z,18.40
2022-10-14T09:46:08.176Z,18.50
2022-10-14T09:48:52.571Z,18.70
2022-10-14T09:51:33.929Z,19.00
2022-10-14T09:54:05.043Z,19.20
2022-10-14T09:56:42.677Z,19.40
2022-10-14T09:59:22.571Z,19.50
2022-10-14T10:01:53.256Z,19.60
2022-10-14T10:04:47.855Z,19.50
2022-10-14T10:07:33.522Z,19.60
2022-10-14T10:10:16.674Z,19.70
2022-10-14T10:12:47.129Z,19.80
2022-10-14T10:15:21.535Z,19.80
2022-10-14T10:17:50.129Z,20.00
2022-10-14T10:20:36.679Z,20.10
2022-10-14T10:23:25.491Z,20.20
2022-10-14T10:25:53.178Z,20.20
2022-10-14T10:28:32.810Z,20.30
2022-10-14T10:31:18.267Z,20.40
2022-10-14T10:34:34.919Z,20.60
2022-10-14T10:37:46.465Z,20.80
2022-10-14T10:40:17.297Z,21.20
2022-10-14T10:43:38.023Z,21.70
2022-10-14T10:46:29.985Z,22.10
2022-10-14T10:50:00.014Z,22.50
2022-10-14T10:52:56.601Z,22.70
2022-10-14T10:56:04.713Z,22.80
2022-10-14T10:59:10.351Z,22.80
2022-10-14T11:01:56.673Z,22.70
2022-10-14T11:04:50.771Z,22.50
2022-10-14T11:08:22.233Z,22.50
2022-10-14T11:11:44.378Z,22.60
2022-10-14T11:14:27.487Z,22.70
2022-10-14T11:17:21.995Z,22.60
2022-10-14T11:20:15.289Z,22.40
2022-10-14T11:23:13.377Z,21.90
2022-10-14T11:25:51.521Z,21.80
2022-10-14T11:29:10.056Z,21.60
2022-10-14T11:32:20.759Z,21.60
2022-10-14T11:35:50.860Z,21.40
2022-10-14T11:39:01.587Z,21.30
2022-10-14T11:41:43.771Z,21.20
2022-10-14T11:44:39.060Z,21.10
2022-10-14T11:47:33.910Z,21.20
2022-10-14T11:50:38.151Z,21.10
2022-10-14T11:53:16.597Z,21.00
2022-10-14T11:55:53.633Z,21.10
2022-10-14T11:58:27.074Z,21.20
2022-10-14T12:01:00.142Z,21.30
2022-10-14T12:03:45.721Z,21.40
2022-10-14T12:06:19.205Z,21.50
2022-10-14T12:09:26.626Z,21.50
2022-10-14T12:12:05.647Z,21.50
2022-10-14T12:14:46.188Z,21.40
2022-10-14T12:17:54.771Z,21.20
2022-10-14T12:20:44.851Z,21.00
2022-10-14T12:23:50.200Z,20.80
2022-10-14T12:26:25.100Z,20.70
2022-10-14T12:28:54.562Z,20.80
2022-10-14T12:32:08.276Z,20.90
2022-10-14T12:34:44.141Z,21.00
2022-10-14T12:37:35.263Z,21.20
2022-10-14T12:40:03.000Z,21.30
2022-10-14T12:42:34.899Z,21.30
2022-10-14T12:45:29.246Z,21.40
2022-10-14T12:48:05.898Z,21.40
2022-10-14T12:50:39.905Z,21.30
2022-10-14T12:53:30.933Z,21.30
2022-10-14T12:56:04.871Z,21.40
2022-10-14T12:58:54.376Z,21.50
2022-10-14T13:01:22.072Z,21.60
2022-10-14T13:06:43.303Z,22.00
2022-10-14T13:09:13.927Z,22.00
2022-10-14T13:11:54.487Z,22.10
2022-10-14T13:14:53.252Z,22.10
2022-10-14T13:17:43.923Z,22.20
2022-10-14T13:20:35.994Z,22.30
2022-10-14T13:23:31.171Z,22.50
2022-10-14T13:26:07.200Z,22.60
2022-10-14T13:29:00.746Z,22.70
2022-10-14T13:31:37.789Z,22.80
2022-10-14T13:34:29.308Z,22.90
2022-10-14T13:37:22.380Z,22.90
2022-10-14T13:39:49.738Z,22.90
2022-10-14T13:42:32.755Z,22.70
2022-10-14T13:45:12.811Z,22.60
2022-10-14T13:47:48.308Z,22.60
2022-10-14T13:50:33.065Z,22.40
2022-10-14T13:53:15.306Z,22.30
2022-10-14T13:55:54.572Z,22.30
2022-10-14T13:58:24.846Z,22.20
2022-10-14T14:01:06.772Z,22.20
2022-10-14T14:03:43.445Z,22.20
2022-10-14T14:06:17.368Z,22.10
2022-10-14T14:09:02.531Z,22.00
2022-10-14T14:11:37.735Z,21.90
2022-10-14T14:14:21.142Z,21.80
2022-10-14T14:16:58.294Z,21.80
2022-10-14T14:19:38.217Z,21.70
2022-10-14T14:22:20.374Z,21.60
2022-10-14T14:24:48.963Z,21.50
2022-10-14T14:27:26.753Z,21.40
2022-10-14T14:29:55.470Z,21.30
2022-10-14T14:32:32.775Z,21.20
2022-10-14T14:35:03.449Z,21.10
2022-10-14T14:40:28.737Z,21.00
2022-10-14T14:43:00.524Z,20.90
2022-10-14T14:45:37.925Z,20.90
2022-10-14T14:48:08.433Z,20.80
2022-10-14T14:50:45.049Z,20.80
2022-10-14T14:53:24.200Z,20.70
2022-10-14T14:56:02.523Z,20.70
2022-10-14T14:58:37.764Z,20.70
2022-10-14T15:01:07.780Z,20.60
2022-10-14T15:04:12.812Z,20.50
2022-10-14T15:07:03.355Z,20.50
2022-10-14T15:09:56.057Z,20.10
2022-10-14T15:12:34.388Z,19.70
2022-10-14T15:15:04.515Z,19.50
2022-10-14T15:17:46.192Z,19.50
2022-10-14T15:20:36.952Z,19.50
2022-10-14T15:24:00.320Z,19.30
2022-10-14T15:26:49.387Z,19.10
2022-10-14T15:32:14.393Z,18.70
2022-10-14T15:34:41.954Z,18.50
2022-10-14T15:37:13.965Z,18.30
2022-10-14T15:39:41.326Z,18.20
2022-10-14T15:42:12.835Z,18.10
2022-10-14T15:44:40.100Z,18.00
2022-10-14T15:47:22.443Z,18.00
2022-10-14T15:49:50.987Z,17.90
2022-10-14T15:52:20.401Z,17.80
2022-10-14T15:54:50.961Z,17.80
2022-10-14T15:57:19.550Z,17.70
2022-10-14T15:59:47.050Z,17.60
2022-10-14T16:02:26.228Z,17.70
2022-10-14T16:05:18.865Z,17.90
2022-10-14T16:07:42.092Z,18.10
2022-10-14T16:10:14.643Z,18.30
2022-10-14T16:12:42.750Z,18.40
2022-10-14T16:15:52.012Z,18.50
2022-10-14T16:18:21.547Z,18.50
2022-10-14T16:20:49.309Z,18.60
2022-10-14T16:23:19.864Z,18.50
2022-10-14T16:25:50.132Z,18.50
2022-10-14T16:28:18.901Z,18.50
2022-10-14T16:30:50.143Z,18.50
2022-10-14T16:33:21.630Z,18.40
2022-10-14T16:35:56.210Z,18.40
2022-10-14T16:38:24.531Z,18.40
2022-10-14T16:40:57.900Z,18.30
2022-10-14T16:43:26.997Z,18.30
2022-10-14T16:45:59.283Z,18.30
2022-10-14T16:48:28.089Z,18.30
2022-10-14T16:50:57.708Z,18.30
2022-10-14T16:53:40.608Z,18.20
2022-10-14T16:56:44.179Z,18.20
2022-10-14T16:59:13.011Z,18.10
2022-10-14T17:01:40.484Z,18.10
2022-10-14T17:04:07.886Z,18.10
2022-10-14T17:06:35.256Z,18.10
2022-10-14T17:09:02.591Z,18.00
2022-10-14T17:11:31.096Z,18.00
2022-10-14T17:14:00.974Z,17.90
2022-10-14T17:16:29.391Z,17.90
2022-10-14T17:18:59.035Z,17.90
2022-10-14T17:21:29.915Z,17.90
2022-10-14T17:24:03.926Z,17.90
2022-10-14T17:26:33.496Z,17.90
2022-10-14T17:29:01.581Z,18.00
2022-10-14T17:31:30.738Z,18.00
2022-10-14T17:34:00.027Z,18.00
2022-10-14T17:36:30.811Z,18.00
2022-10-14T17:38:59.825Z,18.00
2022-10-14T17:41:29.777Z,17.90
2022-10-14T17:44:01.279Z,18.00
2022-10-14T17:46:29.875Z,18.00
2022-10-14T17:49:01.043Z,17.90
2022-10-14T17:51:28.943Z,18.00
2022-10-14T17:54:02.741Z,17.90
2022-10-14T17:56:33.559Z,17.90
2022-10-14T17:59:07.225Z,17.90
2022-10-14T18:02:02.214Z,17.90
2022-10-14T18:04:23.067Z,17.90
2022-10-14T18:06:50.368Z,17.90
2022-10-14T18:09:17.573Z,17.80
2022-10-14T18:12:07.794Z,17.80
2022-10-14T18:14:34.268Z,17.80
2022-10-14T18:17:02.058Z,17.70
2022-10-14T18:19:29.480Z,17.70
2022-10-14T18:21:57.157Z,17.70
2022-10-14T18:24:25.541Z,17.70
2022-10-14T18:26:53.534Z,17.70
2022-10-14T18:29:21.074Z,17.70
2022-10-14T18:34:18.253Z,17.60
2022-10-14T18:36:47.904Z,17.60
2022-10-14T18:39:15.571Z,17.60
2022-10-14T18:41:44.004Z,17.50
2022-10-14T18:44:11.456Z,17.50
2022-10-14T18:46:39.702Z,17.30
2022-10-14T18:49:09.908Z,17.00
2022-10-14T18:51:40.265Z,16.80
2022-10-14T18:54:19.663Z,16.60
2022-10-14T18:56:47.770Z,16.50
2022-10-14T18:59:20.673Z,16.30
2022-10-14T19:01:52.070Z,16.20
2022-10-14T19:04:29.998Z,16.10
2022-10-14T19:06:57.228Z,16.10
2022-10-14T19:09:29.717Z,16.00
2022-10-14T19:11:59.075Z,15.90
2022-10-14T19:14:28.665Z,15.90
2022-10-14T19:16:56.095Z,15.80
2022-10-14T19:19:23.329Z,15.80
2022-10-14T19:21:54.508Z,15.70
2022-10-14T19:24:22.266Z,15.60
2022-10-14T19:26:50.262Z,15.60
2022-10-14T19:29:17.931Z,15.50
2022-10-14T19:31:45.647Z,15.60
2022-10-14T19:34:16.394Z,15.60
2022-10-14T19:36:45.652Z,15.50
2022-10-14T19:39:16.571Z,15.40
2022-10-14T19:41:46.444Z,15.40
2022-10-14T19:44:16.191Z,15.30
2022-10-14T19:46:45.569Z,15.20
2022-10-14T19:49:15.434Z,15.10
2022-10-14T19:51:42.881Z,15.10
2022-10-14T19:54:12.473Z,15.10
2022-10-14T19:56:40.389Z,15.00
2022-10-14T19:59:08.759Z,15.00
2022-10-14T20:01:38.891Z,14.90
2022-10-14T20:04:09.089Z,14.90
2022-10-14T20:06:38.339Z,14.90
2022-10-14T20:09:07.922Z,14.90
2022-10-14T20:11:35.995Z,14.80
2022-10-14T20:14:03.423Z,14.80
2022-10-14T20:16:30.882Z,14.80
2022-10-14T20:18:58.559Z,14.80
2022-10-14T20:21:26.449Z,14.70
2022-10-14T20:23:53.697Z,14.70
2022-10-14T20:26:21.762Z,14.70
2022-10-14T20:28:50.170Z,14.70
2022-10-14T20:31:22.446Z,14.60
2022-10-14T20:33:49.761Z,14.60
2022-10-14T20:36:21.395Z,14.50
2022-10-14T20:38:49.448Z,14.50
2022-10-14T20:41:18.292Z,14.40
2022-10-14T20:43:47.147Z,14.40
2022-10-14T20:46:15.138Z,14.30
2022-10-14T20:48:43.009Z,14.30
2022-10-14T20:51:13.373Z,14.30
2022-10-14T20:56:14.450Z,14.20
2022-10-14T20:58:42.100Z,14.20
2022-10-14T21:01:17.763Z,14.10
2022-10-14T21:03:46.688Z,14.10
2022-10-14T21:06:18.609Z,14.10
2022-10-14T21:08:46.158Z,14.00
2022-10-14T21:11:15.797Z,14.00
2022-10-14T21:13:48.294Z,14.00
2022-10-14T21:16:20.886Z,13.90
2022-10-14T21:18:53.724Z,13.90
2022-10-14T21:21:26.748Z,13.80
2022-10-14T21:23:54.627Z,13.80
2022-10-14T21:26:22.566Z,13.80
2022-10-14T21:28:51.037Z,13.80
2022-10-14T21:31:19.491Z,13.80
2022-10-14T21:34:02.594Z,13.70
2022-10-14T21:36:33.708Z,13.70
2022-10-14T21:39:01.969Z,13.70
2022-10-14T21:41:29.360Z,13.70
2022-10-14T21:43:59.158Z,13.70
2022-10-14T21:46:27.114Z,13.70
2022-10-14T21:48:58.683Z,13.70
2022-10-14T21:51:29.719Z,13.70
2022-10-14T21:53:58.000Z,13.80
2022-10-14T21:56:26.756Z,14.00
2022-10-14T21:58:54.469Z,14.20
2022-10-14T22:01:29.273Z,14.40
2022-10-14T22:04:05.753Z,14.60
2022-10-14T22:06:36.349Z,14.70
2022-10-14T22:09:07.954Z,14.90
2022-10-14T22:11:40.066Z,14.90
2022-10-14T22:14:12.869Z,15.00
2022-10-14T22:16:40.643Z,15.10
2022-10-14T22:19:08.241Z,15.10
2022-10-14T22:21:38.271Z,15.10
2022-10-14T22:26:35.561Z,15.20
2022-10-14T22:29:13.871Z,15.20
2022-10-14T22:31:41.841Z,15.20
2022-10-14T22:34:12.333Z,15.20
2022-10-14T22:36:40.666Z,15.20
2022-10-14T22:39:14.118Z,15.20
2022-10-14T22:41:42.540Z,15.30
2022-10-14T22:44:10.857Z,15.30
2022-10-14T22:46:40.339Z,15.30
2022-10-14T22:49:07.712Z,15.30
2022-10-14T22:51:40.671Z,15.30
2022-10-14T22:54:09.507Z,15.20
2022-10-14T22:56:37.051Z,15.20
2022-10-14T22:59:08.820Z,15.20
2022-10-14T23:01:37.367Z,15.20
2022-10-14T23:04:05.504Z,15.20
2022-10-14T23:06:33.293Z,15.20
2022-10-14T23:09:01.557Z,15.20
2022-10-14T23:11:31.274Z,15.20
2022-10-14T23:14:01.505Z,15.20
2022-10-14T23:16:32.322Z,15.10
2022-10-14T23:18:59.756Z,15.10
2022-10-14T23:21:31.423Z,15.10
2022-10-14T23:24:01.754Z,15.10
2022-10-14T23:26:33.146Z,15.10
2022-10-14T23:29:04.443Z,15.10
2022-10-14T23:31:34.916Z,15.10
2022-10-14T23:34:10.116Z,15.10
2022-10-14T23:36:38.233Z,15.10
2022-10-14T23:39:06.002Z,15.10
2022-10-14T23:41:33.809Z,15.00
2022-10-14T23:44:39.384Z,15.00
2022-10-14T23:47:06.898Z,15.00
2022-10-14T23:49:34.179Z,15.00
2022-10-14T23:52:01.417Z,15.00
2022-10-14T23:54:28.815Z,15.00
2022-10-14T23:56:56.234Z,15.00
2022-10-14T23:59:23.795Z,15.00
